Time;durP1;ratioP1;P1;durP2;ratioP2;P2;SDS_P1;SDS_P2;PMS_P1;PMS_P2;Temp;Humidity;BMP_temperature;BMP_pressure;BME280_temperature;BME280_humidity;BME280_pressure;Samples;Min_cycle;Max_cycle;Signal;HPM_P1;HPM_P2
2022/07/29 00:02:09;;;;;;;6.80;6.10;;;;;;;;;;5049066;28;20183;-74
2022/07/29 00:04:35;;;;;;;6.30;5.80;;;;;;;;;;5050517;28;20206;-76
2022/07/29 00:07:00;;;;;;;6.23;5.73;;;;;;;;;;5048129;28;20176;-76
2022/07/29 00:09:25;;;;;;;7.23;5.80;;;;;;;;;;5049674;28;20212;-76
2022/07/29 00:11:50;;;;;;;6.10;5.47;;;;;;;;;;5050431;28;20183;-77
2022/07/29 00:14:16;;;;;;;6.40;5.90;;;;;;;;;;5037794;28;20175;-75
2022/07/29 00:16:41;;;;;;;6.13;5.53;;;;;;;;;;5051170;28;20179;-76
2022/07/29 00:19:06;;;;;;;6.27;5.60;;;;;;;;;;5047271;28;20226;-76
2022/07/29 00:21:31;;;;;;;6.03;5.43;;;;;;;;;;5050999;28;20227;-77
2022/07/29 00:23:57;;;;;;;6.17;5.67;;;;;;;;;;5029439;28;20179;-76
2022/07/29 00:26:22;;;;;;;6.83;6.20;;;;;;;;;;5033082;28;20209;-76
2022/07/29 00:28:47;;;;;;;6.10;5.60;;;;;;;;;;5032512;28;20266;-76
2022/07/29 00:31:12;;;;;;;6.00;5.50;;;;;;;;;;5048552;28;20187;-75
2022/07/29 00:33:37;;;;;;;7.40;6.03;;;;;;;;;;5044996;28;20188;-76
2022/07/29 00:36:03;;;;;;;5.77;5.27;;;;;;;;;;5031169;28;20184;-77
2022/07/29 00:38:28;;;;;;;6.00;4.90;;;;;;;;;;5041804;28;20199;-74
2022/07/29 00:40:53;;;;;;;6.87;6.27;;;;;;;;;;5031280;28;20259;-76
2022/07/29 00:43:18;;;;;;;6.37;5.87;;;;;;;;;;5029626;28;20187;-75
2022/07/29 00:45:44;;;;;;;5.70;5.23;;;;;;;;;;5031911;28;20173;-76
2022/07/29 00:48:09;;;;;;;7.63;5.60;;;;;;;;;;5053321;28;20186;-75
2022/07/29 00:50:34;;;;;;;5.90;5.40;;;;;;;;;;5045749;28;20207;-77
2022/07/29 00:53:00;;;;;;;6.10;5.60;;;;;;;;;;5034025;28;20278;-77
2022/07/29 00:55:26;;;;;;;5.73;5.23;;;;;;;;;;5047564;28;20345;-77
2022/07/29 00:57:52;;;;;;;6.00;5.50;;;;;;;;;;5031977;28;20190;-77
2022/07/29 01:00:22;;;;;;;6.27;5.63;;;;;;;;;;5030825;28;20206;-76
2022/07/29 01:02:50;;;;;;;5.53;5.13;;;;;;;;;;5036286;28;20176;-76
2022/07/29 01:05:20;;;;;;;7.30;5.50;;;;;;;;;;5034843;28;20185;-76
2022/07/29 01:07:46;;;;;;;5.70;5.20;;;;;;;;;;5049832;28;20182;-76
2022/07/29 01:10:12;;;;;;;6.03;5.53;;;;;;;;;;5034372;28;20202;-76
2022/07/29 01:12:38;;;;;;;6.10;5.30;;;;;;;;;;5031947;28;20179;-76
2022/07/29 01:15:04;;;;;;;5.53;5.13;;;;;;;;;;5045206;28;20185;-75
2022/07/29 01:17:44;;;;;;;5.80;5.20;;;;;;;;;;5048480;28;20180;-77
2022/07/29 01:20:15;;;;;;;6.13;5.53;;;;;;;;;;5033907;28;20315;-74
2022/07/29 01:22:54;;;;;;;6.30;5.70;;;;;;;;;;5036833;28;20268;-76
2022/07/29 01:25:42;;;;;;;6.00;5.50;;;;;;;;;;5027803;28;20185;-75
2022/07/29 01:28:08;;;;;;;5.47;5.03;;;;;;;;;;4983255;28;20187;-76
2022/07/29 01:30:34;;;;;;;5.27;4.87;;;;;;;;;;5014561;28;20265;-76
2022/07/29 01:33:01;;;;;;;5.90;5.23;;;;;;;;;;5027781;28;20199;-77
2022/07/29 01:35:31;;;;;;;5.60;5.20;;;;;;;;;;5036498;28;20179;-76
2022/07/29 01:37:56;;;;;;;5.50;5.03;;;;;;;;;;5027964;28;20356;-76
2022/07/29 01:40:25;;;;;;;6.23;5.67;;;;;;;;;;5035999;28;20207;-76
2022/07/29 01:42:58;;;;;;;5.50;5.00;;;;;;;;;;5012317;28;20194;-77
2022/07/29 01:45:23;;;;;;;5.30;4.57;;;;;;;;;;5007858;28;20176;-76
2022/07/29 01:47:48;;;;;;;4.60;4.20;;;;;;;;;;5031601;28;20207;-77
2022/07/29 01:50:15;;;;;;;4.43;4.13;;;;;;;;;;5016426;28;20181;-77
2022/07/29 01:52:54;;;;;;;4.53;4.13;;;;;;;;;;5037992;28;20214;-74
2022/07/29 01:55:22;;;;;;;4.10;3.70;;;;;;;;;;5029294;28;20262;-76
2022/07/29 01:57:48;;;;;;;4.33;3.93;;;;;;;;;;5025484;28;20179;-76
2022/07/29 02:00:13;;;;;;;4.60;4.20;;;;;;;;;;5014577;28;20199;-76
2022/07/29 02:02:40;;;;;;;5.10;4.70;;;;;;;;;;5035022;28;20229;-76
2022/07/29 02:05:07;;;;;;;4.70;4.30;;;;;;;;;;5034714;28;20186;-75
2022/07/29 02:07:33;;;;;;;5.20;4.70;;;;;;;;;;5017271;28;20185;-76
2022/07/29 02:10:00;;;;;;;4.57;4.00;;;;;;;;;;5019949;28;20202;-77
2022/07/29 02:12:25;;;;;;;5.90;4.77;;;;;;;;;;5035753;28;20221;-76
2022/07/29 02:14:52;;;;;;;4.33;3.90;;;;;;;;;;5040619;28;20210;-76
2022/07/29 02:17:21;;;;;;;4.40;4.07;;;;;;;;;;5023400;28;20183;-76
2022/07/29 02:19:47;;;;;;;4.30;4.00;;;;;;;;;;5032020;28;20257;-77
2022/07/29 02:22:13;;;;;;;4.47;3.63;;;;;;;;;;5043879;28;20217;-77
2022/07/29 02:24:39;;;;;;;4.10;3.80;;;;;;;;;;5040719;28;20192;-77
2022/07/29 02:27:06;;;;;;;3.30;3.10;;;;;;;;;;5030199;28;20179;-75
2022/07/29 02:29:32;;;;;;;3.77;3.50;;;;;;;;;;5036310;28;20201;-76
2022/07/29 02:31:58;;;;;;;3.80;3.30;;;;;;;;;;5048797;28;20269;-77
2022/07/29 02:34:23;;;;;;;3.53;3.23;;;;;;;;;;5043404;28;20254;-77
2022/07/29 02:36:49;;;;;;;3.70;3.10;;;;;;;;;;5031226;28;20212;-76
2022/07/29 02:39:14;;;;;;;4.77;3.63;;;;;;;;;;5041005;28;20177;-77
2022/07/29 02:41:41;;;;;;;3.90;3.60;;;;;;;;;;5052391;28;20440;-76
2022/07/29 02:44:27;;;;;;;3.73;3.43;;;;;;;;;;5024709;28;20180;-76
2022/07/29 02:47:05;;;;;;;3.93;3.63;;;;;;;;;;5022239;28;20217;-76
2022/07/29 02:49:40;;;;;;;3.47;3.17;;;;;;;;;;5043973;28;20266;-76
2022/07/29 02:52:12;;;;;;;4.23;3.83;;;;;;;;;;5038001;28;20236;-74
2022/07/29 02:54:37;;;;;;;3.90;3.50;;;;;;;;;;5044628;28;20200;-77
2022/07/29 02:57:05;;;;;;;3.78;3.47;;;;;;;;;;5037381;28;20177;-75
2022/07/29 02:59:31;;;;;;;3.97;3.60;;;;;;;;;;5031398;28;20186;-77
2022/07/29 03:01:57;;;;;;;4.37;4.07;;;;;;;;;;5037354;28;20209;-76
2022/07/29 03:04:24;;;;;;;4.37;3.27;;;;;;;;;;5054789;28;20178;-76
2022/07/29 03:06:50;;;;;;;3.73;3.50;;;;;;;;;;5040108;28;20185;-77
2022/07/29 03:09:15;;;;;;;4.57;4.17;;;;;;;;;;5029496;28;20209;-76
2022/07/29 03:11:42;;;;;;;4.50;4.13;;;;;;;;;;5051490;28;20209;-76
2022/07/29 03:14:08;;;;;;;4.23;3.83;;;;;;;;;;5048067;28;20181;-77
2022/07/29 03:16:36;;;;;;;4.67;4.33;;;;;;;;;;5046629;28;20187;-76
2022/07/29 03:19:01;;;;;;;4.70;4.30;;;;;;;;;;5030637;28;20500;-77
2022/07/29 03:21:26;;;;;;;4.97;4.57;;;;;;;;;;5035927;28;20235;-76
2022/07/29 03:23:52;;;;;;;5.63;4.70;;;;;;;;;;5015292;28;20174;-77
2022/07/29 03:26:18;;;;;;;4.60;4.30;;;;;;;;;;5036487;28;20173;-76
2022/07/29 03:28:43;;;;;;;5.00;4.60;;;;;;;;;;5032217;28;20188;-77
2022/07/29 03:31:09;;;;;;;4.73;4.43;;;;;;;;;;5026632;28;20191;-76
2022/07/29 03:33:34;;;;;;;5.53;4.90;;;;;;;;;;5025465;28;20185;-76
2022/07/29 03:36:01;;;;;;;5.57;5.10;;;;;;;;;;5016314;28;20211;-77
2022/07/29 03:38:29;;;;;;;5.60;5.17;;;;;;;;;;5035168;28;20200;-76
2022/07/29 03:40:59;;;;;;;5.57;4.83;;;;;;;;;;5032331;28;20201;-76
2022/07/29 03:43:24;;;;;;;5.03;4.63;;;;;;;;;;5029867;28;20178;-77
2022/07/29 03:45:51;;;;;;;5.70;5.10;;;;;;;;;;5031301;28;20187;-77
2022/07/29 03:48:19;;;;;;;5.77;5.17;;;;;;;;;;5033207;28;20186;-77
2022/07/29 03:50:44;;;;;;;6.00;5.50;;;;;;;;;;5030490;28;20182;-77
2022/07/29 03:53:10;;;;;;;6.23;5.63;;;;;;;;;;5032358;28;20189;-77
2022/07/29 03:55:44;;;;;;;5.87;5.30;;;;;;;;;;5027343;28;20178;-77
2022/07/29 03:58:10;;;;;;;6.50;6.00;;;;;;;;;;5036063;28;20191;-76
2022/07/29 04:00:36;;;;;;;6.17;5.57;;;;;;;;;;5011984;28;20266;-77
2022/07/29 04:03:02;;;;;;;5.47;5.07;;;;;;;;;;5031575;28;20178;-76
2022/07/29 04:05:28;;;;;;;5.67;5.17;;;;;;;;;;5033282;28;20186;-77
2022/07/29 04:07:53;;;;;;;5.83;5.00;;;;;;;;;;5028748;28;20273;-77
2022/07/29 04:10:22;;;;;;;5.47;5.07;;;;;;;;;;5018949;28;20186;-77
2022/07/29 04:12:48;;;;;;;6.13;5.53;;;;;;;;;;5009820;28;20297;-76
2022/07/29 04:15:13;;;;;;;4.87;4.47;;;;;;;;;;5026886;28;20274;-77
2022/07/29 04:17:38;;;;;;;6.37;5.43;;;;;;;;;;5018304;28;20221;-76
2022/07/29 04:20:04;;;;;;;5.53;4.97;;;;;;;;;;5027012;28;20240;-77
2022/07/29 04:22:29;;;;;;;4.97;4.40;;;;;;;;;;5032719;28;20214;-76
2022/07/29 04:24:57;;;;;;;4.20;3.90;;;;;;;;;;5049374;28;20185;-76
2022/07/29 04:27:22;;;;;;;6.97;5.00;;;;;;;;;;5049356;28;20182;-77
2022/07/29 04:29:47;;;;;;;5.70;4.80;;;;;;;;;;5035203;28;20186;-77
2022/07/29 04:32:12;;;;;;;7.23;6.00;;;;;;;;;;5033925;28;20189;-76
2022/07/29 04:34:38;;;;;;;7.90;4.97;;;;;;;;;;5033100;28;20466;-76
2022/07/29 04:37:03;;;;;;;5.50;5.00;;;;;;;;;;5031611;28;20186;-76
2022/07/29 04:39:28;;;;;;;7.83;5.30;;;;;;;;;;5051650;28;20272;-77
2022/07/29 04:41:53;;;;;;;4.77;4.40;;;;;;;;;;5050445;28;20226;-77
2022/07/29 04:44:19;;;;;;;5.17;4.67;;;;;;;;;;5023212;28;20185;-76
2022/07/29 04:46:44;;;;;;;5.90;5.40;;;;;;;;;;5032466;28;20301;-76
2022/07/29 04:49:09;;;;;;;5.00;4.60;;;;;;;;;;5050615;28;20178;-77
2022/07/29 04:51:35;;;;;;;4.67;4.27;;;;;;;;;;5050547;28;20178;-76
2022/07/29 04:54:00;;;;;;;5.83;5.30;;;;;;;;;;5034181;28;20193;-76
2022/07/29 04:56:25;;;;;;;6.90;6.30;;;;;;;;;;5027939;28;20193;-77
2022/07/29 04:58:51;;;;;;;6.23;5.73;;;;;;;;;;5035592;28;20174;-75
2022/07/29 05:01:16;;;;;;;6.67;6.00;;;;;;;;;;5029338;28;20213;-77
2022/07/29 05:03:41;;;;;;;6.73;6.23;;;;;;;;;;5028923;28;20180;-77
2022/07/29 05:06:06;;;;;;;6.83;6.27;;;;;;;;;;5048625;28;20206;-77
2022/07/29 05:08:32;;;;;;;9.07;8.17;;;;;;;;;;5032072;28;20195;-77
2022/07/29 05:10:57;;;;;;;7.83;7.13;;;;;;;;;;5049986;28;20201;-76
2022/07/29 05:13:22;;;;;;;6.00;5.40;;;;;;;;;;5023333;28;20186;-77
2022/07/29 05:15:47;;;;;;;5.23;4.83;;;;;;;;;;5057888;28;20201;-76
2022/07/29 05:18:12;;;;;;;6.07;5.50;;;;;;;;;;5032291;28;20209;-76
2022/07/29 05:20:38;;;;;;;6.40;5.80;;;;;;;;;;5024424;28;20239;-77
2022/07/29 05:23:03;;;;;;;6.93;5.73;;;;;;;;;;5027163;28;20182;-77
2022/07/29 05:25:28;;;;;;;7.43;6.80;;;;;;;;;;5005792;28;21834;-77
2022/07/29 05:27:54;;;;;;;6.23;5.60;;;;;;;;;;5011530;28;20180;-76
2022/07/29 05:30:19;;;;;;;7.70;6.40;;;;;;;;;;5005820;28;20187;-75
2022/07/29 05:32:45;;;;;;;5.67;5.17;;;;;;;;;;5011210;28;20214;-77
2022/07/29 05:35:12;;;;;;;5.63;5.20;;;;;;;;;;5023298;28;20180;-76
2022/07/29 05:37:37;;;;;;;6.37;5.57;;;;;;;;;;5027701;28;20226;-77
2022/07/29 05:40:02;;;;;;;5.57;5.00;;;;;;;;;;5015737;28;20305;-77
2022/07/29 05:42:28;;;;;;;5.97;5.47;;;;;;;;;;5026538;28;20274;-76
2022/07/29 05:44:55;;;;;;;5.83;5.33;;;;;;;;;;5027474;28;20175;-76
2022/07/29 05:47:20;;;;;;;6.50;5.90;;;;;;;;;;5013232;28;20183;-77
2022/07/29 05:49:45;;;;;;;6.50;5.87;;;;;;;;;;5011446;28;20212;-77
2022/07/29 05:52:11;;;;;;;6.30;5.80;;;;;;;;;;5012004;28;20227;-77
2022/07/29 05:54:36;;;;;;;5.90;5.40;;;;;;;;;;5027818;28;20178;-76
2022/07/29 05:57:02;;;;;;;7.13;6.50;;;;;;;;;;5030533;28;20181;-77
2022/07/29 05:59:28;;;;;;;5.93;5.43;;;;;;;;;;5030694;28;20188;-77
2022/07/29 06:01:53;;;;;;;7.60;6.23;;;;;;;;;;5013890;28;20212;-77
2022/07/29 06:04:19;;;;;;;6.63;5.90;;;;;;;;;;5028517;28;20184;-77
2022/07/29 06:06:44;;;;;;;6.73;6.10;;;;;;;;;;5001440;28;20287;-75
2022/07/29 06:09:09;;;;;;;6.23;5.67;;;;;;;;;;5010767;28;20183;-77
2022/07/29 06:11:34;;;;;;;6.63;5.97;;;;;;;;;;5029792;28;20181;-77
2022/07/29 06:13:59;;;;;;;6.67;5.93;;;;;;;;;;5027967;28;20180;-78
2022/07/29 06:16:25;;;;;;;6.60;6.00;;;;;;;;;;5027572;28;20296;-76
2022/07/29 06:18:50;;;;;;;6.73;6.03;;;;;;;;;;5031004;28;20258;-77
2022/07/29 06:21:15;;;;;;;6.30;5.80;;;;;;;;;;5030300;28;20212;-75
2022/07/29 06:23:40;;;;;;;6.43;5.83;;;;;;;;;;5033660;28;20183;-75
2022/07/29 06:26:06;;;;;;;5.93;5.53;;;;;;;;;;5037238;28;20184;-75
2022/07/29 06:28:31;;;;;;;6.33;5.90;;;;;;;;;;5026784;28;20515;-76
2022/07/29 06:30:57;;;;;;;6.53;5.93;;;;;;;;;;5033682;28;20179;-76
2022/07/29 06:33:22;;;;;;;6.33;5.73;;;;;;;;;;5042315;28;20180;-75
2022/07/29 06:35:48;;;;;;;5.63;5.00;;;;;;;;;;5049013;28;20180;-75
2022/07/29 06:38:14;;;;;;;4.93;4.50;;;;;;;;;;5027900;28;20179;-75
2022/07/29 06:41:00;;;;;;;5.17;4.73;;;;;;;;;;5038395;28;20311;-75
2022/07/29 06:43:27;;;;;;;4.63;4.23;;;;;;;;;;5021978;28;20186;-75
2022/07/29 06:45:52;;;;;;;4.90;4.50;;;;;;;;;;5047608;28;20180;-76
2022/07/29 06:48:17;;;;;;;5.17;4.20;;;;;;;;;;5050009;28;20272;-75
2022/07/29 06:50:43;;;;;;;6.03;4.40;;;;;;;;;;5048515;28;20204;-76
2022/07/29 06:53:08;;;;;;;7.30;4.40;;;;;;;;;;5036695;28;20180;-76
2022/07/29 06:55:33;;;;;;;4.47;4.07;;;;;;;;;;5054565;28;20188;-75
2022/07/29 06:57:59;;;;;;;5.50;4.17;;;;;;;;;;5050117;28;20185;-75
2022/07/29 07:00:24;;;;;;;5.03;3.87;;;;;;;;;;5040973;28;20260;-76
2022/07/29 07:02:50;;;;;;;6.03;5.30;;;;;;;;;;5049628;28;20180;-75
2022/07/29 07:05:15;;;;;;;4.23;3.83;;;;;;;;;;5052861;28;20188;-76
2022/07/29 07:07:40;;;;;;;4.43;4.03;;;;;;;;;;5054342;28;20199;-76
2022/07/29 07:10:05;;;;;;;4.30;3.90;;;;;;;;;;5038740;28;20183;-74
2022/07/29 07:12:31;;;;;;;4.27;3.60;;;;;;;;;;5052950;28;20179;-76
2022/07/29 07:14:56;;;;;;;4.20;3.90;;;;;;;;;;5049858;28;20221;-76
2022/07/29 07:17:21;;;;;;;5.93;4.17;;;;;;;;;;5053997;28;20183;-76
2022/07/29 07:19:46;;;;;;;9.13;4.73;;;;;;;;;;5039153;28;20227;-76
2022/07/29 07:22:12;;;;;;;4.63;3.60;;;;;;;;;;5034521;28;20216;-75
2022/07/29 07:24:37;;;;;;;5.23;4.73;;;;;;;;;;5035481;28;20188;-76
2022/07/29 07:27:02;;;;;;;4.83;4.43;;;;;;;;;;5032729;28;20182;-73
2022/07/29 07:29:27;;;;;;;4.53;4.17;;;;;;;;;;5050165;28;20174;-76
2022/07/29 07:31:52;;;;;;;7.80;4.93;;;;;;;;;;5048800;28;20188;-76
2022/07/29 07:34:18;;;;;;;4.53;4.20;;;;;;;;;;5051326;28;20178;-76
2022/07/29 07:36:43;;;;;;;4.53;4.13;;;;;;;;;;5051365;28;20185;-76
2022/07/29 07:39:08;;;;;;;4.43;4.10;;;;;;;;;;5033632;28;20187;-72
2022/07/29 07:41:33;;;;;;;4.50;4.10;;;;;;;;;;5051606;28;20186;-73
2022/07/29 07:43:59;;;;;;;5.30;4.30;;;;;;;;;;5055015;28;20195;-76
2022/07/29 07:46:24;;;;;;;5.20;4.80;;;;;;;;;;5052138;28;20155;-72
2022/07/29 07:48:51;;;;;;;6.17;4.53;;;;;;;;;;5050221;28;20183;-73
2022/07/29 07:51:17;;;;;;;6.03;4.83;;;;;;;;;;5049471;28;20184;-73
2022/07/29 07:53:44;;;;;;;6.97;4.50;;;;;;;;;;5028295;28;20176;-76
2022/07/29 07:56:09;;;;;;;5.37;4.43;;;;;;;;;;5031517;28;20252;-80
2022/07/29 07:58:35;;;;;;;4.60;4.20;;;;;;;;;;5032629;28;20280;-77
2022/07/29 08:01:00;;;;;;;5.03;4.63;;;;;;;;;;5034729;28;20211;-77
2022/07/29 08:03:25;;;;;;;5.20;4.70;;;;;;;;;;5051368;28;20219;-77
2022/07/29 08:05:51;;;;;;;4.87;4.47;;;;;;;;;;5024772;28;20211;-77
2022/07/29 08:08:16;;;;;;;8.37;4.70;;;;;;;;;;5050922;28;20168;-76
2022/07/29 08:10:58;;;;;;;5.27;4.83;;;;;;;;;;5031170;28;20192;-76
2022/07/29 08:13:25;;;;;;;5.00;4.50;;;;;;;;;;5026525;28;20192;-77
2022/07/29 08:16:00;;;;;;;5.63;4.83;;;;;;;;;;5037084;28;20190;-77
2022/07/29 08:18:26;;;;;;;5.97;5.13;;;;;;;;;;5053859;28;20212;-77
2022/07/29 08:20:51;;;;;;;5.53;4.67;;;;;;;;;;5033038;28;20237;-77
2022/07/29 08:23:18;;;;;;;5.93;5.43;;;;;;;;;;5052272;28;20168;-75
2022/07/29 08:25:44;;;;;;;5.80;5.30;;;;;;;;;;5033304;28;20172;-75
2022/07/29 08:28:09;;;;;;;5.63;5.00;;;;;;;;;;5039026;28;20178;-74
2022/07/29 08:30:34;;;;;;;6.00;4.90;;;;;;;;;;5030853;28;20208;-75
2022/07/29 08:32:59;;;;;;;5.13;4.83;;;;;;;;;;5032377;28;20238;-75
2022/07/29 08:35:25;;;;;;;5.53;5.07;;;;;;;;;;5035344;28;20292;-75
2022/07/29 08:37:51;;;;;;;5.00;4.60;;;;;;;;;;5052331;28;20188;-75
2022/07/29 08:40:20;;;;;;;5.47;5.07;;;;;;;;;;5047960;28;20209;-75
2022/07/29 08:42:45;;;;;;;5.80;4.73;;;;;;;;;;5051641;28;20228;-75
2022/07/29 08:45:10;;;;;;;5.10;4.70;;;;;;;;;;5031972;28;20280;-75
2022/07/29 08:47:39;;;;;;;5.63;4.88;;;;;;;;;;5035446;28;20312;-75
2022/07/29 08:50:04;;;;;;;5.70;4.85;;;;;;;;;;5033894;28;20269;-75
2022/07/29 08:52:31;;;;;;;6.10;5.47;;;;;;;;;;5030628;28;20284;-75
2022/07/29 08:54:57;;;;;;;5.88;4.80;;;;;;;;;;5041057;28;20256;-75
2022/07/29 08:57:22;;;;;;;4.88;4.40;;;;;;;;;;5033891;28;20227;-75
2022/07/29 08:59:50;;;;;;;5.63;5.00;;;;;;;;;;5037257;28;20178;-75
2022/07/29 09:02:22;;;;;;;5.88;4.25;;;;;;;;;;5034717;28;20178;-75
2022/07/29 09:04:48;;;;;;;5.43;4.93;;;;;;;;;;5049418;28;20201;-75
2022/07/29 09:07:17;;;;;;;5.70;4.90;;;;;;;;;;5029610;28;20182;-75
2022/07/29 09:09:42;;;;;;;5.97;5.18;;;;;;;;;;5051221;28;20178;-75
2022/07/29 09:12:08;;;;;;;6.05;5.03;;;;;;;;;;5052939;28;20180;-75
2022/07/29 09:14:34;;;;;;;6.25;4.97;;;;;;;;;;5032041;28;20166;-76
2022/07/29 09:16:59;;;;;;;5.88;5.40;;;;;;;;;;5051870;28;20241;-76
2022/07/29 09:19:24;;;;;;;5.47;4.97;;;;;;;;;;5050070;28;20257;-75
2022/07/29 09:21:58;;;;;;;5.50;4.85;;;;;;;;;;5031915;28;20210;-76
2022/07/29 09:24:25;;;;;;;5.10;4.45;;;;;;;;;;5029480;28;20177;-76
2022/07/29 09:26:50;;;;;;;4.60;4.20;;;;;;;;;;5033394;28;20224;-76
2022/07/29 09:29:16;;;;;;;4.80;4.47;;;;;;;;;;5032805;28;20186;-75
2022/07/29 09:31:52;;;;;;;5.22;4.72;;;;;;;;;;5020992;28;20221;-75
2022/07/29 09:34:28;;;;;;;5.45;5.03;;;;;;;;;;5041057;28;20179;-76
2022/07/29 09:36:54;;;;;;;6.05;5.13;;;;;;;;;;5037751;28;20196;-76
2022/07/29 09:39:31;;;;;;;4.63;4.28;;;;;;;;;;5034244;28;20178;-76
2022/07/29 09:41:58;;;;;;;7.68;4.28;;;;;;;;;;5048589;28;20202;-76
2022/07/29 09:44:24;;;;;;;5.22;4.70;;;;;;;;;;5057606;28;20342;-76
2022/07/29 09:47:05;;;;;;;4.68;4.28;;;;;;;;;;5038061;28;20265;-76
2022/07/29 09:49:31;;;;;;;4.63;4.32;;;;;;;;;;5029629;28;20192;-76
2022/07/29 09:52:06;;;;;;;6.88;4.13;;;;;;;;;;5065072;28;20186;-76
2022/07/29 09:54:36;;;;;;;8.27;4.03;;;;;;;;;;5040826;28;20231;-75
2022/07/29 09:57:02;;;;;;;5.00;4.57;;;;;;;;;;5027391;28;20457;-76
2022/07/29 09:59:28;;;;;;;4.68;4.18;;;;;;;;;;5049280;28;20194;-76
2022/07/29 10:01:53;;;;;;;6.57;4.60;;;;;;;;;;5048738;28;20213;-76
2022/07/29 10:04:19;;;;;;;5.78;4.10;;;;;;;;;;5043210;28;20174;-75
2022/07/29 10:07:00;;;;;;;4.43;3.90;;;;;;;;;;5046643;28;20189;-76
2022/07/29 10:09:26;;;;;;;4.05;3.75;;;;;;;;;;5048667;28;20241;-76
2022/07/29 10:12:08;;;;;;;4.95;3.92;;;;;;;;;;5048666;28;20260;-75
2022/07/29 10:14:34;;;;;;;4.40;3.40;;;;;;;;;;5033457;28;20421;-76
2022/07/29 10:17:00;;;;;;;5.70;4.18;;;;;;;;;;5047639;28;20189;-77
2022/07/29 10:19:26;;;;;;;5.85;4.15;;;;;;;;;;5038908;28;20328;-77
2022/07/29 10:21:51;;;;;;;6.07;4.35;;;;;;;;;;5050261;28;20291;-76
2022/07/29 10:24:17;;;;;;;5.38;4.93;;;;;;;;;;5061071;28;20240;-76
2022/07/29 10:26:42;;;;;;;6.05;4.07;;;;;;;;;;5054258;28;20200;-76
2022/07/29 10:29:07;;;;;;;5.13;4.70;;;;;;;;;;5035740;28;20235;-76
2022/07/29 10:32:02;;;;;;;6.68;4.63;;;;;;;;;;5053878;28;20175;-76
2022/07/29 10:34:45;;;;;;;5.30;4.50;;;;;;;;;;5017153;28;20194;-77
2022/07/29 10:37:23;;;;;;;6.00;4.70;;;;;;;;;;5028775;28;20288;-76
2022/07/29 10:40:00;;;;;;;4.82;4.43;;;;;;;;;;5030262;28;20182;-76
2022/07/29 10:42:27;;;;;;;6.20;4.63;;;;;;;;;;5037998;28;21346;-75
2022/07/29 10:44:53;;;;;;;5.82;4.80;;;;;;;;;;5053734;28;20259;-76
2022/07/29 10:47:27;;;;;;;5.40;4.35;;;;;;;;;;5039063;28;20261;-75
2022/07/29 10:49:59;;;;;;;6.05;4.80;;;;;;;;;;5050665;28;20180;-75
2022/07/29 10:52:27;;;;;;;5.82;5.18;;;;;;;;;;5053428;28;20174;-76
2022/07/29 10:54:53;;;;;;;5.38;4.88;;;;;;;;;;5054820;28;20255;-75
2022/07/29 10:57:25;;;;;;;5.03;4.47;;;;;;;;;;5056057;28;20235;-75
2022/07/29 11:00:11;;;;;;;5.03;4.63;;;;;;;;;;5036172;28;20174;-76
2022/07/29 11:02:36;;;;;;;6.05;4.57;;;;;;;;;;5044426;28;20191;-76
2022/07/29 11:05:03;;;;;;;4.33;3.93;;;;;;;;;;5047111;28;20193;-76
2022/07/29 11:07:29;;;;;;;5.55;4.85;;;;;;;;;;5050816;28;20520;-76
2022/07/29 11:10:12;;;;;;;5.13;4.45;;;;;;;;;;5050311;28;20185;-75
2022/07/29 11:12:38;;;;;;;5.45;4.95;;;;;;;;;;5057311;28;20186;-76
2022/07/29 11:15:07;;;;;;;4.82;4.43;;;;;;;;;;5050426;28;20194;-76
2022/07/29 11:17:52;;;;;;;6.05;4.97;;;;;;;;;;5032110;28;20182;-76
2022/07/29 11:20:35;;;;;;;6.20;3.90;;;;;;;;;;5053936;28;20229;-76
2022/07/29 11:23:01;;;;;;;6.07;4.38;;;;;;;;;;5050766;28;20182;-76
2022/07/29 11:25:26;;;;;;;7.63;7.03;;;;;;;;;;5050576;28;20179;-76
2022/07/29 11:27:52;;;;;;;4.93;4.53;;;;;;;;;;5034730;28;20185;-75
2022/07/29 11:30:18;;;;;;;5.43;4.70;;;;;;;;;;5056323;28;20187;-76
2022/07/29 11:32:44;;;;;;;5.10;4.65;;;;;;;;;;5051333;28;20251;-76
2022/07/29 11:35:19;;;;;;;4.95;4.50;;;;;;;;;;5028095;28;20177;-75
2022/07/29 11:37:46;;;;;;;4.53;4.22;;;;;;;;;;5048721;28;20170;-75
2022/07/29 11:40:12;;;;;;;4.28;3.97;;;;;;;;;;5050479;28;20186;-76
2022/07/29 11:42:38;;;;;;;5.07;4.60;;;;;;;;;;5035765;28;20174;-75
2022/07/29 11:45:27;;;;;;;4.90;4.43;;;;;;;;;;5055956;28;20193;-76
2022/07/29 11:47:54;;;;;;;5.18;4.68;;;;;;;;;;5033935;28;20189;-76
2022/07/29 11:50:30;;;;;;;4.68;4.30;;;;;;;;;;5033015;28;20340;-76
2022/07/29 11:52:56;;;;;;;5.43;4.50;;;;;;;;;;5029047;28;20192;-76
2022/07/29 11:55:23;;;;;;;5.35;4.28;;;;;;;;;;5051104;28;20190;-75
2022/07/29 11:57:59;;;;;;;5.18;4.68;;;;;;;;;;5028013;28;20181;-76
2022/07/29 12:00:24;;;;;;;4.53;4.15;;;;;;;;;;5045901;28;20217;-76
2022/07/29 12:02:50;;;;;;;7.18;4.55;;;;;;;;;;5040571;28;20209;-76
2022/07/29 12:05:18;;;;;;;9.45;5.03;;;;;;;;;;5035552;28;20174;-75
2022/07/29 12:07:43;;;;;;;7.53;6.82;;;;;;;;;;5058463;28;20166;-76
2022/07/29 12:10:08;;;;;;;5.80;4.53;;;;;;;;;;5051737;28;20252;-76
2022/07/29 12:12:34;;;;;;;4.82;4.43;;;;;;;;;;5049134;28;20232;-76
2022/07/29 12:15:17;;;;;;;5.03;3.92;;;;;;;;;;5047402;28;20179;-76
2022/07/29 12:17:43;;;;;;;4.80;4.38;;;;;;;;;;5050248;28;20228;-76
2022/07/29 12:20:08;;;;;;;5.22;4.75;;;;;;;;;;5027375;28;20218;-76
2022/07/29 12:22:36;;;;;;;4.80;4.30;;;;;;;;;;5030844;28;20277;-76
2022/07/29 12:25:14;;;;;;;5.38;4.25;;;;;;;;;;5028088;28;20176;-76
2022/07/29 12:27:39;;;;;;;6.68;4.22;;;;;;;;;;5030898;28;20175;-75
2022/07/29 12:30:06;;;;;;;6.40;4.32;;;;;;;;;;5036638;28;20184;-76
2022/07/29 12:32:32;;;;;;;5.10;3.95;;;;;;;;;;5026583;28;20231;-75
2022/07/29 12:34:57;;;;;;;4.68;4.20;;;;;;;;;;5052432;28;20184;-75
2022/07/29 12:37:23;;;;;;;5.90;3.97;;;;;;;;;;5039898;28;20174;-75
2022/07/29 12:39:49;;;;;;;7.07;3.95;;;;;;;;;;5050145;28;20197;-75
2022/07/29 12:42:15;;;;;;;4.10;3.80;;;;;;;;;;5034212;28;20210;-76
2022/07/29 12:44:47;;;;;;;4.43;3.95;;;;;;;;;;5034143;28;20174;-75
2022/07/29 12:47:13;;;;;;;5.70;3.80;;;;;;;;;;5048553;28;20174;-76
2022/07/29 12:49:38;;;;;;;6.55;3.75;;;;;;;;;;5046258;28;20171;-76
2022/07/29 12:52:22;;;;;;;4.57;4.15;;;;;;;;;;5054589;28;20177;-76
2022/07/29 12:54:47;;;;;;;6.80;4.10;;;;;;;;;;5048932;28;20178;-75
2022/07/29 12:57:12;;;;;;;4.18;3.88;;;;;;;;;;5047824;28;20188;-76
2022/07/29 12:59:37;;;;;;;4.07;3.70;;;;;;;;;;5026838;28;20182;-75
2022/07/29 13:02:06;;;;;;;5.75;3.60;;;;;;;;;;5046447;28;20211;-76
2022/07/29 13:04:32;;;;;;;4.72;3.67;;;;;;;;;;5024148;28;20192;-75
2022/07/29 13:07:01;;;;;;;6.93;4.47;;;;;;;;;;5049036;28;20269;-76
2022/07/29 13:09:36;;;;;;;4.90;3.70;;;;;;;;;;5036679;28;20167;-76
2022/07/29 13:12:05;;;;;;;8.63;3.80;;;;;;;;;;5032833;28;20185;-75
2022/07/29 13:14:31;;;;;;;4.85;3.60;;;;;;;;;;5034746;28;20191;-76
2022/07/29 13:17:10;;;;;;;3.85;3.28;;;;;;;;;;5030550;28;20220;-76
2022/07/29 13:19:36;;;;;;;4.35;3.20;;;;;;;;;;5050930;28;20218;-76
2022/07/29 13:22:01;;;;;;;3.33;3.03;;;;;;;;;;5050087;28;20206;-75
2022/07/29 13:24:27;;;;;;;7.60;3.05;;;;;;;;;;5034430;28;20183;-76
2022/07/29 13:26:52;;;;;;;12.55;3.20;;;;;;;;;;5050578;28;20205;-76
2022/07/29 13:29:17;;;;;;;3.65;3.08;;;;;;;;;;5045798;28;20726;-75
2022/07/29 13:31:43;;;;;;;4.80;3.50;;;;;;;;;;5028494;28;20510;-75
2022/07/29 13:34:08;;;;;;;3.38;2.60;;;;;;;;;;5029852;28;20324;-75
2022/07/29 13:36:33;;;;;;;2.90;2.70;;;;;;;;;;5049251;28;20174;-75
2022/07/29 13:38:59;;;;;;;4.72;2.47;;;;;;;;;;5034619;28;20192;-75
2022/07/29 13:41:24;;;;;;;2.97;2.38;;;;;;;;;;5041227;28;20198;-75
2022/07/29 13:43:49;;;;;;;4.60;3.13;;;;;;;;;;5017438;28;20179;-75
2022/07/29 13:46:14;;;;;;;3.22;2.90;;;;;;;;;;5031026;28;20483;-76
2022/07/29 13:48:39;;;;;;;6.57;3.00;;;;;;;;;;5032990;28;20281;-76
2022/07/29 13:51:05;;;;;;;3.60;3.25;;;;;;;;;;5030992;28;20178;-75
2022/07/29 13:53:30;;;;;;;2.97;2.40;;;;;;;;;;5038453;28;20276;-75
2022/07/29 13:55:55;;;;;;;3.03;2.70;;;;;;;;;;5034394;28;20276;-75
2022/07/29 13:58:20;;;;;;;4.63;3.08;;;;;;;;;;5032354;28;20186;-75
2022/07/29 14:00:46;;;;;;;3.08;2.88;;;;;;;;;;5032679;28;20213;-75
2022/07/29 14:03:11;;;;;;;4.50;2.72;;;;;;;;;;5047440;28;20285;-75
2022/07/29 14:05:37;;;;;;;5.07;2.75;;;;;;;;;;5030135;28;20201;-76
2022/07/29 14:08:02;;;;;;;4.53;3.00;;;;;;;;;;5032358;28;20575;-75
2022/07/29 14:10:27;;;;;;;4.32;2.78;;;;;;;;;;5032735;28;20277;-75
2022/07/29 14:12:52;;;;;;;4.80;2.95;;;;;;;;;;5048400;28;20213;-75
2022/07/29 14:15:17;;;;;;;3.78;3.13;;;;;;;;;;5045734;28;20207;-75
2022/07/29 14:17:43;;;;;;;6.60;2.70;;;;;;;;;;5034923;28;20311;-75
2022/07/29 14:20:08;;;;;;;3.97;2.90;;;;;;;;;;5030289;28;20284;-75
2022/07/29 14:22:33;;;;;;;3.75;2.70;;;;;;;;;;5035747;28;20178;-75
2022/07/29 14:24:59;;;;;;;3.42;2.72;;;;;;;;;;5037239;28;20170;-75
2022/07/29 14:27:24;;;;;;;4.00;2.70;;;;;;;;;;5037040;28;20178;-75
2022/07/29 14:29:49;;;;;;;3.30;3.00;;;;;;;;;;5049967;28;20185;-75
2022/07/29 14:32:14;;;;;;;2.95;2.70;;;;;;;;;;5046759;28;20178;-75
2022/07/29 14:34:40;;;;;;;3.10;2.78;;;;;;;;;;5033540;28;20209;-75
2022/07/29 14:37:05;;;;;;;3.00;2.80;;;;;;;;;;5027886;28;20277;-75
2022/07/29 14:39:31;;;;;;;3.80;3.35;;;;;;;;;;5049504;28;20174;-75
2022/07/29 14:41:56;;;;;;;5.40;2.78;;;;;;;;;;5032066;28;20206;-75
2022/07/29 14:44:21;;;;;;;4.22;2.78;;;;;;;;;;5029752;28;20186;-75